createdAt,value
2022-10-05T00:00:27.195Z,4.45
2022-10-05T00:02:54.505Z,3.85
2022-10-05T00:05:30.170Z,3.78
2022-10-05T00:07:57.169Z,3.97
2022-10-05T00:10:23.659Z,4.35
2022-10-05T00:12:49.927Z,4.05
2022-10-05T00:15:18.330Z,3.85
2022-10-05T00:17:44.628Z,3.90
2022-10-05T00:20:17.153Z,3.78
2022-10-05T00:22:43.373Z,3.45
2022-10-05T00:25:14.433Z,3.53
2022-10-05T00:27:40.727Z,5.13
2022-10-05T00:30:15.049Z,3.97
2022-10-05T00:32:41.965Z,4.07
2022-10-05T00:35:09.192Z,4.05
2022-10-05T00:37:35.522Z,4.05
2022-10-05T00:40:02.081Z,3.80
2022-10-05T00:42:28.302Z,3.70
2022-10-05T00:44:58.204Z,3.72
2022-10-05T00:47:42.998Z,3.75
2022-10-05T00:50:09.198Z,3.50
2022-10-05T00:52:49.612Z,3.70
2022-10-05T00:55:18.947Z,4.03
2022-10-05T00:58:04.000Z,3.75
2022-10-05T01:00:31.103Z,3.50
2022-10-05T01:02:57.375Z,3.72
2022-10-05T01:05:23.565Z,3.70
2022-10-05T01:08:11.711Z,3.60
2022-10-05T01:10:41.843Z,3.90
2022-10-05T01:13:26.696Z,3.75
2022-10-05T01:15:57.145Z,3.40
2022-10-05T01:18:26.140Z,3.30
2022-10-05T01:21:13.312Z,3.63
2022-10-05T01:23:42.610Z,3.72
2022-10-05T01:26:27.596Z,3.55
2022-10-05T01:29:09.996Z,3.20
2022-10-05T01:31:41.522Z,3.70
2022-10-05T01:34:22.610Z,3.95
2022-10-05T01:36:51.820Z,3.60
2022-10-05T01:39:29.721Z,3.38
2022-10-05T01:41:55.931Z,3.58
2022-10-05T01:44:26.437Z,3.80
2022-10-05T01:47:14.258Z,3.35
2022-10-05T01:50:11.245Z,3.30
2022-10-05T01:52:59.368Z,3.60
2022-10-05T01:55:39.194Z,3.35
2022-10-05T01:58:08.641Z,3.22
2022-10-05T02:00:43.319Z,2.97
2022-10-05T02:03:16.398Z,3.92
2022-10-05T02:05:51.543Z,3.88
2022-10-05T02:08:21.936Z,3.40
2022-10-05T02:10:53.132Z,3.10
2022-10-05T02:13:25.293Z,3.60
2022-10-05T02:15:54.426Z,3.53
2022-10-05T02:18:29.301Z,3.30
2022-10-05T02:20:56.622Z,3.40
2022-10-05T02:23:25.374Z,3.35
2022-10-05T02:25:52.612Z,3.38
2022-10-05T02:28:21.982Z,4.03
2022-10-05T02:31:03.586Z,3.55
2022-10-05T02:33:31.440Z,3.88
2022-10-05T02:36:20.742Z,3.72
2022-10-05T02:38:46.937Z,3.70
2022-10-05T02:41:32.320Z,3.58
2022-10-05T02:44:01.771Z,3.20
2022-10-05T02:46:28.255Z,3.63
2022-10-05T02:49:13.858Z,4.20
2022-10-05T02:51:51.429Z,3.25
2022-10-05T02:54:20.592Z,4.20
2022-10-05T02:56:49.930Z,3.60
2022-10-05T02:59:19.291Z,3.22
2022-10-05T03:01:50.295Z,3.75
2022-10-05T03:04:34.116Z,3.20
2022-10-05T03:07:03.145Z,3.38
2022-10-05T03:09:31.602Z,3.50
2022-10-05T03:12:09.880Z,3.55
2022-10-05T03:14:36.128Z,3.75
2022-10-05T03:17:22.392Z,3.33
2022-10-05T03:20:00.833Z,3.67
2022-10-05T03:22:38.436Z,3.65
2022-10-05T03:25:23.407Z,3.78
2022-10-05T03:27:54.715Z,3.47
2022-10-05T03:30:22.800Z,4.05
2022-10-05T03:33:01.319Z,3.25
2022-10-05T03:35:29.946Z,3.78
2022-10-05T03:38:02.132Z,3.58
2022-10-05T03:40:31.420Z,3.38
2022-10-05T03:42:57.615Z,3.80
2022-10-05T03:45:23.963Z,3.50
2022-10-05T03:48:05.411Z,3.85
2022-10-05T03:50:31.662Z,3.50
2022-10-05T03:53:01.453Z,3.50
2022-10-05T03:55:37.180Z,3.85
2022-10-05T03:58:06.518Z,3.65
2022-10-05T04:00:33.527Z,2.95
2022-10-05T04:03:02.839Z,3.10
2022-10-05T04:05:42.768Z,3.30
2022-10-05T04:08:12.550Z,3.38
2022-10-05T04:10:47.956Z,3.20
2022-10-05T04:13:17.644Z,3.30
2022-10-05T04:15:46.185Z,3.35
2022-10-05T04:18:24.476Z,3.03
2022-10-05T04:20:56.002Z,4.03
2022-10-05T04:23:31.126Z,3.88
2022-10-05T04:25:59.472Z,3.35
2022-10-05T04:28:32.170Z,3.75
2022-10-05T04:31:00.375Z,3.30
2022-10-05T04:33:27.275Z,3.40
2022-10-05T04:36:03.142Z,3.28
2022-10-05T04:39:01.601Z,3.35
2022-10-05T04:41:37.672Z,3.25
2022-10-05T04:44:09.974Z,3.47
2022-10-05T04:47:00.231Z,3.80
2022-10-05T04:49:48.672Z,3.42
2022-10-05T04:52:23.265Z,3.42
2022-10-05T04:54:58.593Z,3.28
2022-10-05T04:57:29.424Z,2.92
2022-10-05T04:59:55.671Z,3.47
2022-10-05T05:02:24.943Z,2.95
2022-10-05T05:05:02.138Z,3.17
2022-10-05T05:07:47.197Z,3.47
2022-10-05T05:10:33.832Z,2.90
2022-10-05T05:13:00.039Z,3.30
2022-10-05T05:15:49.971Z,3.40
2022-10-05T05:18:25.885Z,2.70
2022-10-05T05:20:58.954Z,3.20
2022-10-05T05:23:51.264Z,3.00
2022-10-05T05:26:27.852Z,3.80
2022-10-05T05:29:02.481Z,2.90
2022-10-05T05:31:41.876Z,3.10
2022-10-05T05:34:17.510Z,3.53
2022-10-05T05:36:53.072Z,3.47
2022-10-05T05:39:24.198Z,3.63
2022-10-05T05:42:00.092Z,3.45
2022-10-05T05:44:47.532Z,3.67
2022-10-05T05:47:19.625Z,3.00
2022-10-05T05:49:45.959Z,3.72
2022-10-05T05:52:22.211Z,3.47
2022-10-05T05:54:54.865Z,3.33
2022-10-05T05:57:39.996Z,3.05
2022-10-05T06:00:15.752Z,2.75
2022-10-05T06:02:44.369Z,3.10
2022-10-05T06:05:37.234Z,2.70
2022-10-05T06:08:08.707Z,3.03
2022-10-05T06:10:41.392Z,3.40
2022-10-05T06:13:15.458Z,3.53
2022-10-05T06:15:50.617Z,3.30
2022-10-05T06:18:18.599Z,2.90
2022-10-05T06:20:54.495Z,2.60
2022-10-05T06:23:25.387Z,2.97
2022-10-05T06:25:57.608Z,2.80
2022-10-05T06:28:25.259Z,2.42
2022-10-05T06:31:06.824Z,2.75
2022-10-05T06:33:45.247Z,2.60
2022-10-05T06:36:29.570Z,3.13
2022-10-05T06:38:55.840Z,2.65
2022-10-05T06:41:33.923Z,2.72
2022-10-05T06:44:17.484Z,2.63
2022-10-05T06:46:56.000Z,2.65
2022-10-05T06:49:38.515Z,2.30
2022-10-05T06:52:10.741Z,2.60
2022-10-05T06:54:40.076Z,2.47
2022-10-05T06:57:12.368Z,2.30
2022-10-05T06:59:38.568Z,2.90
2022-10-05T07:02:40.560Z,2.88
2022-10-05T07:05:10.015Z,3.03
2022-10-05T07:07:53.750Z,2.65
2022-10-05T07:10:34.869Z,2.85
2022-10-05T07:13:07.110Z,2.70
2022-10-05T07:15:41.442Z,2.42
2022-10-05T07:18:26.756Z,2.90
2022-10-05T07:20:58.595Z,2.70
2022-10-05T07:23:28.944Z,3.00
2022-10-05T07:26:14.784Z,2.47
2022-10-05T07:28:44.090Z,2.03
2022-10-05T07:31:21.769Z,2.70
2022-10-05T07:34:06.848Z,2.60
2022-10-05T07:36:58.890Z,2.60
2022-10-05T07:39:36.731Z,2.63
2022-10-05T07:42:30.082Z,2.10
2022-10-05T07:45:15.352Z,2.55
2022-10-05T07:47:47.936Z,2.33
2022-10-05T07:50:16.918Z,3.20
2022-10-05T07:52:48.155Z,2.92
2022-10-05T07:55:32.045Z,2.47
2022-10-05T07:58:17.471Z,2.13
2022-10-05T08:00:56.532Z,3.20
2022-10-05T08:03:39.062Z,2.78
2022-10-05T08:06:06.725Z,2.35
2022-10-05T08:08:42.397Z,2.60
2022-10-05T08:11:14.167Z,2.67
2022-10-05T08:13:45.688Z,2.22
2022-10-05T08:16:16.582Z,2.40
2022-10-05T08:18:55.872Z,2.13
2022-10-05T08:21:34.215Z,2.25
2022-10-05T08:24:39.043Z,2.53
2022-10-05T08:27:09.862Z,2.30
2022-10-05T08:29:42.187Z,2.90
2022-10-05T08:32:14.031Z,2.75
2022-10-05T08:34:40.245Z,2.50
2022-10-05T08:37:21.654Z,2.60
2022-10-05T08:39:52.741Z,2.08
2022-10-05T08:42:35.342Z,3.35
2022-10-05T08:45:21.893Z,1.90
2022-10-05T08:47:48.101Z,2.17
2022-10-05T08:50:15.848Z,2.33
2022-10-05T08:52:48.095Z,2.40
2022-10-05T08:55:26.664Z,2.83
2022-10-05T08:58:03.280Z,2.03
2022-10-05T09:00:39.234Z,3.25
2022-10-05T09:03:14.331Z,2.45
2022-10-05T09:05:49.724Z,2.45
2022-10-05T09:08:15.970Z,2.88
2022-10-05T09:10:48.204Z,2.90
2022-10-05T09:13:33.459Z,2.50
2022-10-05T09:16:03.337Z,2.10
2022-10-05T09:18:32.598Z,1.92
2022-10-05T09:21:02.536Z,2.10
2022-10-05T09:23:37.584Z,2.30
2022-10-05T09:26:09.821Z,2.50
2022-10-05T09:28:54.625Z,1.90
2022-10-05T09:31:21.986Z,1.90
2022-10-05T09:34:00.300Z,2.45
2022-10-05T09:36:45.675Z,2.10
2022-10-05T09:39:30.948Z,2.00
2022-10-05T09:42:03.202Z,2.20
2022-10-05T09:44:41.240Z,2.10
2022-10-05T09:47:26.398Z,2.13
2022-10-05T09:50:11.567Z,2.17
2022-10-05T09:52:56.925Z,2.00
2022-10-05T09:55:42.008Z,2.28
2022-10-05T09:58:17.375Z,2.10
2022-10-05T10:00:55.589Z,1.90
2022-10-05T10:04:09.895Z,2.20
2022-10-05T10:07:04.485Z,2.05
2022-10-05T10:09:39.647Z,1.90
2022-10-05T10:12:18.084Z,1.90
2022-10-05T10:15:03.286Z,2.40
2022-10-05T10:17:45.234Z,1.80
2022-10-05T10:20:30.884Z,1.85
2022-10-05T10:23:00.340Z,2.10
2022-10-05T10:25:26.534Z,1.90
2022-10-05T10:28:13.199Z,1.90
2022-10-05T10:30:39.488Z,1.88
2022-10-05T10:33:15.587Z,1.88
2022-10-05T10:38:28.466Z,1.88
2022-10-05T10:41:13.392Z,1.70
2022-10-05T10:44:02.851Z,1.63
2022-10-05T10:46:31.920Z,1.67
2022-10-05T10:49:17.095Z,2.08
2022-10-05T10:51:52.453Z,1.92
2022-10-05T10:54:22.699Z,1.95
2022-10-05T10:57:05.991Z,1.70
2022-10-05T10:59:50.790Z,2.10
2022-10-05T11:02:32.730Z,1.73
2022-10-05T11:05:06.689Z,1.83
2022-10-05T11:07:41.774Z,1.80
2022-10-05T11:10:26.399Z,1.40
2022-10-05T11:13:11.429Z,1.42
2022-10-05T11:15:37.674Z,1.67
2022-10-05T11:18:15.558Z,1.80
2022-10-05T11:20:52.632Z,1.58
2022-10-05T11:23:24.696Z,1.77
2022-10-05T11:25:56.944Z,1.58
2022-10-05T11:28:35.602Z,1.80
2022-10-05T11:31:17.048Z,1.60
2022-10-05T11:34:03.636Z,1.83
2022-10-05T11:36:40.106Z,1.73
2022-10-05T11:39:30.187Z,1.48
2022-10-05T11:42:15.320Z,1.27
2022-10-05T11:44:42.880Z,1.50
2022-10-05T11:47:17.682Z,1.20
2022-10-05T11:49:56.079Z,1.42
2022-10-05T11:52:26.604Z,1.20
2022-10-05T11:55:10.438Z,1.50
2022-10-05T11:57:40.483Z,1.63
2022-10-05T12:00:23.737Z,1.60
2022-10-05T12:03:09.364Z,1.60
2022-10-05T12:05:38.714Z,1.57
2022-10-05T12:08:14.195Z,1.50
2022-10-05T12:10:46.510Z,1.20
2022-10-05T12:13:13.166Z,1.60
2022-10-05T12:16:02.459Z,1.48
2022-10-05T12:18:32.672Z,1.48
2022-10-05T12:21:04.736Z,1.80
2022-10-05T12:23:36.389Z,1.30
2022-10-05T12:26:10.965Z,1.50
2022-10-05T12:28:49.844Z,1.45
2022-10-05T12:31:35.415Z,1.63
2022-10-05T12:34:19.104Z,1.40
2022-10-05T12:37:05.742Z,1.52
2022-10-05T12:39:38.065Z,1.50
2022-10-05T12:42:23.557Z,1.35
2022-10-05T12:45:05.164Z,2.13
2022-10-05T12:47:37.097Z,1.40
2022-10-05T12:50:18.750Z,1.33
2022-10-05T12:53:05.975Z,1.33
2022-10-05T12:55:42.388Z,1.48
2022-10-05T12:58:27.803Z,1.40
2022-10-05T13:00:57.707Z,1.50
2022-10-05T13:03:25.680Z,1.30
2022-10-05T13:05:51.879Z,1.40
2022-10-05T13:08:38.513Z,1.42
2022-10-05T13:13:34.277Z,1.60
2022-10-05T13:16:04.603Z,1.30
2022-10-05T13:18:34.010Z,1.35
2022-10-05T13:21:12.423Z,1.48
2022-10-05T13:24:01.105Z,1.75
2022-10-05T13:26:39.674Z,1.20
2022-10-05T13:29:25.767Z,1.33
2022-10-05T13:31:55.330Z,1.25
2022-10-05T13:34:39.021Z,1.52
2022-10-05T13:37:11.224Z,1.27
2022-10-05T13:39:56.261Z,1.23
2022-10-05T13:42:32.660Z,1.55
2022-10-05T13:45:01.015Z,1.27
2022-10-05T13:47:33.058Z,1.40
2022-10-05T13:50:02.686Z,1.10
2022-10-05T13:52:54.431Z,1.17
2022-10-05T13:55:55.997Z,1.30
2022-10-05T13:58:22.209Z,1.20
2022-10-05T14:00:55.708Z,1.27
2022-10-05T14:03:35.827Z,1.67
2022-10-05T14:06:10.901Z,1.40
2022-10-05T14:08:47.551Z,1.02
2022-10-05T14:11:20.835Z,1.27
2022-10-05T14:13:47.812Z,1.33
2022-10-05T14:16:25.049Z,1.40
2022-10-05T14:18:51.285Z,1.30
2022-10-05T14:21:22.292Z,1.13
2022-10-05T14:23:49.310Z,1.52
2022-10-05T14:26:17.807Z,1.20
2022-10-05T14:28:56.234Z,1.30
2022-10-05T14:31:28.820Z,1.23
2022-10-05T14:33:55.199Z,1.33
2022-10-05T14:36:35.632Z,1.35
2022-10-05T14:39:04.782Z,1.40
2022-10-05T14:41:35.018Z,1.25
2022-10-05T14:44:03.956Z,1.20
2022-10-05T14:46:32.688Z,1.10
2022-10-05T14:49:17.910Z,1.55
2022-10-05T14:51:44.216Z,1.25
2022-10-05T14:54:29.298Z,1.30
2022-10-05T14:56:59.004Z,1.42
2022-10-05T14:59:33.415Z,1.60
2022-10-05T15:02:18.554Z,1.15
2022-10-05T15:04:50.571Z,1.35
2022-10-05T15:07:24.935Z,1.40
2022-10-05T15:10:00.380Z,1.42
2022-10-05T15:12:35.336Z,1.20
2022-10-05T15:15:05.321Z,1.63
2022-10-05T15:17:38.702Z,1.60
2022-10-05T15:20:27.116Z,1.60
2022-10-05T15:22:53.329Z,1.40
2022-10-05T15:25:36.975Z,1.40
2022-10-05T15:28:22.302Z,1.50
2022-10-05T15:30:59.229Z,1.63
2022-10-05T15:33:28.729Z,1.50
2022-10-05T15:36:04.306Z,1.40
2022-10-05T15:38:51.010Z,2.00
2022-10-05T15:41:19.867Z,1.65
2022-10-05T15:43:50.190Z,1.75
2022-10-05T15:46:34.396Z,1.70
2022-10-05T15:49:27.137Z,1.50
2022-10-05T15:51:59.579Z,1.50
2022-10-05T15:54:58.214Z,1.58
2022-10-05T15:57:39.740Z,1.80
2022-10-05T16:00:15.214Z,1.67
2022-10-05T16:02:46.888Z,2.88
2022-10-05T16:05:50.351Z,1.52
2022-10-05T16:08:54.141Z,1.60
2022-10-05T16:11:33.073Z,1.70
2022-10-05T16:14:06.030Z,1.33
2022-10-05T16:16:36.632Z,1.52
2022-10-05T16:19:07.433Z,1.70
2022-10-05T16:21:53.907Z,1.50
2022-10-05T16:24:22.926Z,1.50
2022-10-05T16:26:55.321Z,1.60
2022-10-05T16:29:21.501Z,1.35
2022-10-05T16:32:03.139Z,1.20
2022-10-05T16:34:45.157Z,1.27
2022-10-05T16:37:11.352Z,1.30
2022-10-05T16:39:48.372Z,1.30
2022-10-05T16:42:23.877Z,1.45
2022-10-05T16:45:06.631Z,1.20
2022-10-05T16:47:53.107Z,1.70
2022-10-05T16:50:31.636Z,1.30
2022-10-05T16:53:01.829Z,1.40
2022-10-05T16:55:37.417Z,1.67
2022-10-05T16:58:06.020Z,1.60
2022-10-05T17:00:48.838Z,1.92
2022-10-05T17:03:17.908Z,1.50
2022-10-05T17:06:00.658Z,1.40
2022-10-05T17:08:31.653Z,1.70
2022-10-05T17:11:01.017Z,1.90
2022-10-05T17:13:39.584Z,1.65
2022-10-05T17:16:05.896Z,1.70
2022-10-05T17:18:51.499Z,1.65
2022-10-05T17:21:36.432Z,2.25
2022-10-05T17:24:11.925Z,1.90
2022-10-05T17:26:59.183Z,2.57
2022-10-05T17:29:27.796Z,1.98
2022-10-05T17:32:06.318Z,1.90
2022-10-05T17:34:34.760Z,2.55
2022-10-05T17:37:19.676Z,2.10
2022-10-05T17:39:52.916Z,2.33
2022-10-05T17:42:31.724Z,2.70
2022-10-05T17:44:59.111Z,2.25
2022-10-05T17:47:47.412Z,2.15
2022-10-05T17:50:32.255Z,2.40
2022-10-05T17:53:38.262Z,2.00
2022-10-05T17:56:04.917Z,2.03
2022-10-05T17:58:33.857Z,2.67
2022-10-05T18:01:00.723Z,2.30
2022-10-05T18:03:45.566Z,2.08
2022-10-05T18:06:21.112Z,2.00
2022-10-05T18:08:49.767Z,2.42
2022-10-05T18:11:28.009Z,2.47
2022-10-05T18:14:14.174Z,2.10
2022-10-05T18:16:59.258Z,2.40
2022-10-05T18:19:25.782Z,2.00
2022-10-05T18:22:15.386Z,2.08
2022-10-05T18:25:03.862Z,1.90
2022-10-05T18:27:50.415Z,2.30
2022-10-05T18:30:19.296Z,2.17
2022-10-05T18:33:07.569Z,2.15
2022-10-05T18:35:59.952Z,1.92
2022-10-05T18:38:32.350Z,2.10
2022-10-05T18:41:05.161Z,2.03
2022-10-05T18:43:37.359Z,1.98
2022-10-05T18:46:10.740Z,2.22
2022-10-05T18:48:45.351Z,1.75
2022-10-05T18:51:30.822Z,1.98
2022-10-05T18:54:05.013Z,2.47
2022-10-05T18:56:38.221Z,1.92
2022-10-05T18:59:19.247Z,1.98
2022-10-05T19:01:52.215Z,2.08
2022-10-05T19:04:22.427Z,1.75
2022-10-05T19:07:04.770Z,2.20
2022-10-05T19:09:31.020Z,2.13
2022-10-05T19:12:05.305Z,2.30
2022-10-05T19:14:37.368Z,2.70
2022-10-05T19:17:09.856Z,1.85
2022-10-05T19:19:49.439Z,1.95
2022-10-05T19:22:40.363Z,2.03
2022-10-05T19:25:25.587Z,1.77
2022-10-05T19:28:01.003Z,2.20
2022-10-05T19:30:30.069Z,2.33
2022-10-05T19:33:04.544Z,2.13
2022-10-05T19:35:33.854Z,1.95
2022-10-05T19:38:24.783Z,2.15
2022-10-05T19:41:03.122Z,1.90
2022-10-05T19:43:41.025Z,2.20
2022-10-05T19:46:19.197Z,2.10
2022-10-05T19:48:48.315Z,1.90
2022-10-05T19:51:30.505Z,2.13
2022-10-05T19:54:00.106Z,1.52
2022-10-05T19:56:29.435Z,1.67
2022-10-05T19:59:00.879Z,1.92
2022-10-05T20:01:31.213Z,2.08
2022-10-05T20:03:58.029Z,1.80
2022-10-05T20:06:24.397Z,2.10
2022-10-05T20:08:51.795Z,1.60
2022-10-05T20:11:22.749Z,1.58
2022-10-05T20:13:51.861Z,2.22
2022-10-05T20:16:49.708Z,1.67
2022-10-05T20:19:43.908Z,2.25
2022-10-05T20:22:23.116Z,1.52
2022-10-05T20:24:50.756Z,1.80
2022-10-05T20:27:34.539Z,2.17
2022-10-05T20:30:02.034Z,1.73
2022-10-05T20:32:30.697Z,2.70
2022-10-05T20:34:57.180Z,2.08
2022-10-05T20:37:23.515Z,1.75
2022-10-05T20:39:53.111Z,2.13
2022-10-05T20:42:20.319Z,2.03
2022-10-05T20:44:46.780Z,1.73
2022-10-05T20:47:13.703Z,2.50
2022-10-05T20:49:41.238Z,1.70
2022-10-05T20:52:09.681Z,2.58
2022-10-05T20:54:37.182Z,1.77
2022-10-05T20:57:05.603Z,2.20
2022-10-05T20:59:32.511Z,1.65
2022-10-05T21:01:59.169Z,1.90
2022-10-05T21:04:30.140Z,1.95
2022-10-05T21:07:02.626Z,1.70
2022-10-05T21:09:29.343Z,1.70
2022-10-05T21:11:56.046Z,1.77
2022-10-05T21:14:23.624Z,1.42
2022-10-05T21:16:50.364Z,1.90
2022-10-05T21:19:16.567Z,1.52
2022-10-05T21:21:43.979Z,1.60
2022-10-05T21:24:11.628Z,1.60
2022-10-05T21:26:37.883Z,1.30
2022-10-05T21:29:07.809Z,1.40
2022-10-05T21:31:36.881Z,1.40
2022-10-05T21:34:03.464Z,1.30
2022-10-05T21:36:29.720Z,1.80
2022-10-05T21:38:55.996Z,1.70
2022-10-05T21:41:22.384Z,1.60
2022-10-05T21:43:48.915Z,1.35
2022-10-05T21:46:17.118Z,1.20
2022-10-05T21:48:43.834Z,1.38
2022-10-05T21:51:11.206Z,1.45
2022-10-05T21:53:40.009Z,1.80
2022-10-05T21:56:08.571Z,1.25
2022-10-05T21:58:34.872Z,1.10
2022-10-05T22:01:01.151Z,1.20
2022-10-05T22:03:27.493Z,1.23
2022-10-05T22:05:53.857Z,1.08
2022-10-05T22:08:30.790Z,1.10
2022-10-05T22:10:57.388Z,1.20
2022-10-05T22:13:25.842Z,1.10
2022-10-05T22:15:53.814Z,1.20
2022-10-05T22:18:20.104Z,1.05
2022-10-05T22:20:46.437Z,1.00
2022-10-05T22:23:12.755Z,1.30
2022-10-05T22:25:39.383Z,1.20
2022-10-05T22:28:07.080Z,0.95
2022-10-05T22:30:33.332Z,1.00
2022-10-05T22:32:59.543Z,0.90
2022-10-05T22:35:25.911Z,1.83
2022-10-05T22:37:52.113Z,0.70
2022-10-05T22:40:18.413Z,1.00
2022-10-05T22:42:44.673Z,1.05
2022-10-05T22:45:10.901Z,1.00
2022-10-05T22:47:37.124Z,0.90
2022-10-05T22:50:03.448Z,0.80
2022-10-05T22:52:29.681Z,1.02
2022-10-05T22:54:55.902Z,0.68
2022-10-05T22:57:22.136Z,0.63
2022-10-05T22:59:48.359Z,0.73
2022-10-05T23:02:14.637Z,0.68
2022-10-05T23:04:40.944Z,0.77
2022-10-05T23:07:07.164Z,0.77
2022-10-05T23:09:33.378Z,0.80
2022-10-05T23:11:59.612Z,0.70
2022-10-05T23:14:25.919Z,0.90
2022-10-05T23:16:55.266Z,0.90
2022-10-05T23:19:21.956Z,0.70
2022-10-05T23:21:48.163Z,0.90
2022-10-05T23:24:14.386Z,0.93
2022-10-05T23:26:40.599Z,0.90
2022-10-05T23:29:06.886Z,0.73
2022-10-05T23:31:33.600Z,0.70
2022-10-05T23:34:00.607Z,0.50
2022-10-05T23:36:29.344Z,0.95
2022-10-05T23:38:55.556Z,0.93
2022-10-05T23:41:21.900Z,0.85
2022-10-05T23:43:48.447Z,0.73
2022-10-05T23:46:14.815Z,0.70
2022-10-05T23:48:41.170Z,1.40
2022-10-05T23:51:10.298Z,0.93
2022-10-05T23:53:36.592Z,1.00
2022-10-05T23:56:03.853Z,0.80
2022-10-05T23:58:30.641Z,0.70
